Airfield :
LOGIN :

Register | Disclaimer

   EN    FR    IT 

 










Legend :    VFR   Marginal VFR   IFR   Intensive IFR   Very Intensive IFR
Visi :
Ceiling :
>= 8 km
>= 3000ft
5 to 8 km
1000 to 3000 ft
1500m to 5 km
500 to 1000 ft
800 to 1500m
200 to 500 ft
< 800m
< 200 ft
Symbols :   Thunderstorms  Fog  Heavy snow  Heavy precipitations  Wind > 20 kt
SIGMETs :     Misc.  Thunderstorms  Icing  Turbulence  Mountain Waves  Volcanic Ashes







- Airport Elevation : 978 ft
- IATA code : LNZ


LOWL - Linz

CURRENT METAR :
  • 180420Z VRB01KT 5000 R26/P1500U BR FEW007 05/04 Q1019 BECMG 1500 BKN003 TEMPO 0300

EXPIRED METARs :
  • 180350Z VRB01KT 4800 BR MIFG FEW007 06/05 Q1019 BECMG 1200 BCFG BKN003 TEMPO 0300
  • 180320Z 26003KT 5000 2100W BR MIFG FEW009 06/05 Q1019 BECMG 1500 BCFG BKN003 TEMPO 0300 FG
  • 180250Z AUTO 24003KT 4700 BR NSC 07/06 Q1019
  • 180220Z AUTO 22004KT 5000 BR NSC 06/06 Q1019
  • 180150Z AUTO 26003KT 7000 NSC 07/06 Q1019

TAF TAF LOWL
Valid from the 18 at 00:00 until the 19 at 00:00 UTC


172315Z 1800/1824 10004KT 5000 BR SCT009 TX17/1815Z TN08/1803Z
TEMPO 1802/1809 1200 BCFG BKN004
PROB40 1804/1808 VRB02KT 0200 FG VV001
BECMG 1812/1814 9999 NSW FEW040
No reported NOTAMs for that airfield.



MET'MAP, your aeronautical weather chart ! - Copyright ORBIFLY December 2007 - Disclaimer

ORBIFLY MET'MAP TEAM :

Programming & Development : Alexandra Zaïnal
Concept & Development : Baudouin d'Aumeries
Co-Development & Prog : Marc-Olivier Méhu
Technical & hardware support : Manuel Goepfert

Contact : metmap@orbifly.com




SOURCES & CREDITS :

   NOAA